createdAt,value
2022-11-12T00:00:54.228Z,103.15
2022-11-12T00:03:21.725Z,103.20
2022-11-12T00:05:50.659Z,103.22
2022-11-12T00:08:17.827Z,103.57
2022-11-12T00:10:45.521Z,103.12
2022-11-12T00:13:12.529Z,103.41
2022-11-12T00:15:39.354Z,103.27
2022-11-12T00:18:07.607Z,103.16
2022-11-12T00:20:34.992Z,103.02
2022-11-12T00:23:02.042Z,103.21
2022-11-12T00:25:28.896Z,103.10
2022-11-12T00:28:02.130Z,103.25
2022-11-12T00:30:28.904Z,103.36
2022-11-12T00:32:55.693Z,103.46
2022-11-12T00:35:22.516Z,103.44
2022-11-12T00:37:57.715Z,103.34
2022-11-12T00:40:25.448Z,103.31
2022-11-12T00:42:52.878Z,103.61
2022-11-12T00:45:21.032Z,103.88
2022-11-12T00:47:48.086Z,103.57
2022-11-12T00:50:16.177Z,103.28
2022-11-12T00:52:43.367Z,103.44
2022-11-12T00:55:10.628Z,103.12
2022-11-12T00:57:37.320Z,103.58
2022-11-12T01:00:06.269Z,103.37
2022-11-12T01:02:38.612Z,103.30
2022-11-12T01:05:09.441Z,103.38
2022-11-12T01:07:36.256Z,103.54
2022-11-12T01:10:03.632Z,103.22
2022-11-12T01:12:33.755Z,103.39
2022-11-12T01:15:01.539Z,103.66
2022-11-12T01:17:28.624Z,103.49
2022-11-12T01:19:55.263Z,103.98
2022-11-12T01:22:22.121Z,103.98
2022-11-12T01:24:48.857Z,104.05
2022-11-12T01:27:16.913Z,103.90
2022-11-12T01:29:43.568Z,103.99
2022-11-12T01:32:10.261Z,103.73
2022-11-12T01:34:37.071Z,103.79
2022-11-12T01:37:03.747Z,103.79
2022-11-12T01:39:30.594Z,104.31
2022-11-12T01:41:57.346Z,104.18
2022-11-12T01:44:27.037Z,104.52
2022-11-12T01:47:12.655Z,104.73
2022-11-12T01:49:41.837Z,104.46
2022-11-12T01:52:34.465Z,104.81
2022-11-12T01:55:16.272Z,105.25
2022-11-12T01:57:51.283Z,105.12
2022-11-12T02:00:18.469Z,105.30
2022-11-12T02:02:52.644Z,105.34
2022-11-12T02:05:21.157Z,105.43
2022-11-12T02:07:49.060Z,105.51
2022-11-12T02:10:16.318Z,105.26
2022-11-12T02:13:02.836Z,105.68
2022-11-12T02:15:29.895Z,105.80
2022-11-12T02:17:57.357Z,105.60
2022-11-12T02:20:24.379Z,105.87
2022-11-12T02:22:51.171Z,105.95
2022-11-12T02:25:22.247Z,105.85
2022-11-12T02:27:51.876Z,106.01
2022-11-12T02:30:37.519Z,106.02
2022-11-12T02:33:04.488Z,106.14
2022-11-12T02:35:31.742Z,106.06
2022-11-12T02:37:58.994Z,106.33
2022-11-12T02:40:25.761Z,106.30
2022-11-12T02:42:52.747Z,106.29
2022-11-12T02:45:19.925Z,106.50
2022-11-12T02:47:46.603Z,106.95
2022-11-12T02:50:13.444Z,106.92
2022-11-12T02:52:43.126Z,106.95
2022-11-12T02:55:11.767Z,107.06
2022-11-12T02:57:39.757Z,107.40
2022-11-12T03:00:09.552Z,107.27
2022-11-12T03:02:42.492Z,107.63
2022-11-12T03:05:12.727Z,108.01
2022-11-12T03:07:39.861Z,108.25
2022-11-12T03:10:06.989Z,108.03
2022-11-12T03:12:34.053Z,108.22
2022-11-12T03:15:00.748Z,108.81
2022-11-12T03:17:27.405Z,108.92
2022-11-12T03:19:54.143Z,108.84
2022-11-12T03:22:20.868Z,109.31
2022-11-12T03:24:47.658Z,109.56
2022-11-12T03:27:14.424Z,109.79
2022-11-12T03:29:41.030Z,109.84
2022-11-12T03:32:07.801Z,109.81
2022-11-12T03:34:34.399Z,109.42
2022-11-12T03:37:01.067Z,109.63
2022-11-12T03:39:27.724Z,109.73
2022-11-12T03:41:54.423Z,110.19
2022-11-12T03:44:21.089Z,110.17
2022-11-12T03:46:47.898Z,110.04
2022-11-12T03:49:14.764Z,110.30
2022-11-12T03:51:41.477Z,109.89
2022-11-12T03:54:08.242Z,109.52
2022-11-12T03:56:34.933Z,109.68
2022-11-12T03:59:01.761Z,109.62
2022-11-12T04:01:28.613Z,109.62
2022-11-12T04:03:55.333Z,109.55
2022-11-12T04:06:40.575Z,109.26
2022-11-12T04:09:07.344Z,109.07
2022-11-12T04:11:34.010Z,108.81
2022-11-12T04:14:00.650Z,108.82
2022-11-12T04:16:46.007Z,108.69
2022-11-12T04:19:32.569Z,109.05
2022-11-12T04:22:10.765Z,108.67
2022-11-12T04:25:01.279Z,108.59
2022-11-12T04:27:29.779Z,108.42
2022-11-12T04:30:15.510Z,108.60
2022-11-12T04:32:59.031Z,108.64
2022-11-12T04:35:27.067Z,108.83
2022-11-12T04:37:54.513Z,108.63
2022-11-12T04:40:41.947Z,108.88
2022-11-12T04:43:34.444Z,108.63
2022-11-12T04:46:02.616Z,108.84
2022-11-12T04:48:31.057Z,109.07
2022-11-12T04:51:24.617Z,108.95
2022-11-12T04:53:51.497Z,108.91
2022-11-12T04:56:18.115Z,108.62
2022-11-12T04:58:45.081Z,109.19
2022-11-12T05:01:11.831Z,109.30
2022-11-12T05:03:38.627Z,109.29
2022-11-12T05:06:29.727Z,109.20
2022-11-12T05:08:56.577Z,109.82
2022-11-12T05:11:23.698Z,109.69
2022-11-12T05:13:50.403Z,109.59
2022-11-12T05:16:17.095Z,109.48
2022-11-12T05:18:43.812Z,109.30
2022-11-12T05:21:28.999Z,109.39
2022-11-12T05:23:55.724Z,109.88
2022-11-12T05:26:22.383Z,109.81
2022-11-12T05:28:49.071Z,109.94
2022-11-12T05:31:16.002Z,110.16
2022-11-12T05:33:42.670Z,110.24
2022-11-12T05:36:09.466Z,110.06
2022-11-12T05:38:38.183Z,109.98
2022-11-12T05:41:04.944Z,110.08
2022-11-12T05:43:31.708Z,109.76
2022-11-12T05:45:58.359Z,109.88
2022-11-12T05:48:25.057Z,109.85
2022-11-12T05:51:11.941Z,109.68
2022-11-12T05:53:39.906Z,109.49
2022-11-12T05:56:07.804Z,109.75
2022-11-12T05:58:35.894Z,109.55
2022-11-12T06:01:03.903Z,109.94
2022-11-12T06:03:30.781Z,109.96
2022-11-12T06:05:57.679Z,110.13
2022-11-12T06:08:24.602Z,110.18
2022-11-12T06:10:52.917Z,109.90
2022-11-12T06:13:20.760Z,109.96
2022-11-12T06:15:47.539Z,110.03
2022-11-12T06:18:14.602Z,110.10
2022-11-12T06:20:41.514Z,110.29
2022-11-12T06:23:08.222Z,110.06
2022-11-12T06:25:34.998Z,110.20
2022-11-12T06:28:01.907Z,110.40
2022-11-12T06:30:28.671Z,110.55
2022-11-12T06:32:55.407Z,110.72
2022-11-12T06:35:22.134Z,110.66
2022-11-12T06:37:49.678Z,110.22
2022-11-12T06:40:16.457Z,110.39
2022-11-12T06:42:43.249Z,109.78
2022-11-12T06:45:10.382Z,110.33
2022-11-12T06:47:37.155Z,110.55
2022-11-12T06:50:04.093Z,109.95
2022-11-12T06:52:30.760Z,109.67
2022-11-12T06:54:57.473Z,109.06
2022-11-12T06:57:24.259Z,108.70
2022-11-12T06:59:50.891Z,108.39
2022-11-12T07:02:18.020Z,108.43
2022-11-12T07:04:45.399Z,107.97
2022-11-12T07:07:12.324Z,107.95
2022-11-12T07:09:39.228Z,108.15
2022-11-12T07:12:06.380Z,107.96
2022-11-12T07:14:33.227Z,107.65
2022-11-12T07:17:00.029Z,107.37
2022-11-12T07:19:26.726Z,107.30
2022-11-12T07:21:53.366Z,107.31
2022-11-12T07:24:20.105Z,107.40
2022-11-12T07:26:47.810Z,106.96
2022-11-12T07:29:30.211Z,106.83
2022-11-12T07:32:01.699Z,107.20
2022-11-12T07:34:28.340Z,106.72
2022-11-12T07:36:55.331Z,106.75
2022-11-12T07:39:21.997Z,106.82
2022-11-12T07:41:48.715Z,106.76
2022-11-12T07:44:15.445Z,107.15
2022-11-12T07:46:42.130Z,107.07
2022-11-12T07:49:08.777Z,107.40
2022-11-12T07:51:36.157Z,107.00
2022-11-12T07:54:03.122Z,106.82
2022-11-12T07:56:30.610Z,107.31
2022-11-12T07:58:57.277Z,107.41
2022-11-12T08:01:34.108Z,107.30
2022-11-12T08:04:02.312Z,107.17
2022-11-12T08:06:30.680Z,106.75
2022-11-12T08:08:59.644Z,106.96
2022-11-12T08:11:26.656Z,106.92
2022-11-12T08:13:53.572Z,106.98
2022-11-12T08:16:20.786Z,106.69
2022-11-12T08:18:47.981Z,106.92
2022-11-12T08:21:16.774Z,106.92
2022-11-12T08:23:45.068Z,107.07
2022-11-12T08:26:14.884Z,106.69
2022-11-12T08:28:41.907Z,106.47
2022-11-12T08:31:18.798Z,106.33
2022-11-12T08:33:45.953Z,106.18
2022-11-12T08:36:14.649Z,106.43
2022-11-12T08:38:42.233Z,106.28
2022-11-12T08:41:11.668Z,106.40
2022-11-12T08:43:42.866Z,106.27
2022-11-12T08:46:10.295Z,105.85
2022-11-12T08:48:40.235Z,105.80
2022-11-12T08:51:07.890Z,105.71
2022-11-12T08:53:34.793Z,105.76
2022-11-12T08:56:01.914Z,105.57
2022-11-12T08:58:29.080Z,105.70
2022-11-12T09:00:57.098Z,105.76
2022-11-12T09:03:26.172Z,105.31
2022-11-12T09:05:54.164Z,105.53
2022-11-12T09:08:25.451Z,105.92
2022-11-12T09:10:52.534Z,106.82
2022-11-12T09:13:19.837Z,105.75
2022-11-12T09:15:47.473Z,106.59
2022-11-12T09:18:16.565Z,105.37
2022-11-12T09:20:44.019Z,104.05
2022-11-12T09:23:13.832Z,104.92
2022-11-12T09:25:41.502Z,103.34
2022-11-12T09:28:10.436Z,104.18
2022-11-12T09:30:41.298Z,102.35
2022-11-12T09:33:07.994Z,103.94
2022-11-12T09:35:35.260Z,104.38
2022-11-12T09:38:01.937Z,104.01
2022-11-12T09:40:41.863Z,103.20
2022-11-12T09:43:27.683Z,103.78
2022-11-12T09:46:13.862Z,103.23
2022-11-12T09:48:49.939Z,103.89
2022-11-12T09:51:27.040Z,105.05
2022-11-12T09:53:59.181Z,103.76
2022-11-12T09:56:28.306Z,103.30
2022-11-12T09:58:55.466Z,104.32
2022-11-12T10:01:46.500Z,102.72
2022-11-12T10:04:28.497Z,103.26
2022-11-12T10:07:28.398Z,101.70
2022-11-12T10:10:14.964Z,103.00
2022-11-12T10:12:44.765Z,104.16
2022-11-12T10:15:47.824Z,101.42
2022-11-12T10:18:42.300Z,101.62
2022-11-12T10:21:30.424Z,101.64
2022-11-12T10:23:58.123Z,101.74
2022-11-12T10:26:26.212Z,100.48
2022-11-12T10:29:10.511Z,102.09
2022-11-12T10:31:37.673Z,101.92
2022-11-12T10:34:13.292Z,102.51
2022-11-12T10:36:44.285Z,102.48
2022-11-12T10:39:31.461Z,102.88
2022-11-12T10:42:19.098Z,102.92
2022-11-12T10:44:46.789Z,102.78
2022-11-12T10:47:42.773Z,103.29
2022-11-12T10:50:10.333Z,103.10
2022-11-12T10:52:37.579Z,102.46
2022-11-12T10:55:31.560Z,102.65
2022-11-12T10:58:20.535Z,102.35
2022-11-12T11:00:55.053Z,102.47
2022-11-12T11:03:28.173Z,102.40
2022-11-12T11:06:06.169Z,102.54
2022-11-12T11:08:40.506Z,102.69
2022-11-12T11:11:31.052Z,102.01
2022-11-12T11:14:18.491Z,102.11
2022-11-12T11:16:49.921Z,102.23
2022-11-12T11:19:16.651Z,101.85
2022-11-12T11:21:49.360Z,101.05
2022-11-12T11:24:37.511Z,100.83
2022-11-12T11:27:29.537Z,100.86
2022-11-12T11:30:12.897Z,100.57
2022-11-12T11:33:03.581Z,100.45
2022-11-12T11:36:00.173Z,99.57
2022-11-12T11:38:41.800Z,99.55
2022-11-12T11:41:21.179Z,99.71
2022-11-12T11:43:50.837Z,99.33
2022-11-12T11:46:23.623Z,99.38
2022-11-12T11:49:02.257Z,99.02
2022-11-12T11:51:37.725Z,99.58
2022-11-12T11:54:25.523Z,99.13
2022-11-12T11:56:56.926Z,98.45
2022-11-12T12:00:04.566Z,98.32
2022-11-12T12:03:05.241Z,97.77
2022-11-12T12:06:20.289Z,97.58
2022-11-12T12:08:52.914Z,97.84
2022-11-12T12:12:00.810Z,98.26
2022-11-12T12:14:34.879Z,98.57
2022-11-12T12:17:31.708Z,98.32
2022-11-12T12:20:30.729Z,98.31
2022-11-12T12:23:04.834Z,98.07
2022-11-12T12:25:40.922Z,97.86
2022-11-12T12:28:30.632Z,97.92
2022-11-12T12:31:05.568Z,97.09
2022-11-12T12:33:36.800Z,97.84
2022-11-12T12:36:09.267Z,98.75
2022-11-12T12:38:43.374Z,98.81
2022-11-12T12:41:18.666Z,98.84
2022-11-12T12:43:53.204Z,98.62
2022-11-12T12:46:24.958Z,97.41
2022-11-12T12:48:56.517Z,97.29
2022-11-12T12:51:23.213Z,98.29
2022-11-12T12:53:49.865Z,98.33
2022-11-12T12:56:22.513Z,99.74
2022-11-12T12:58:50.785Z,98.24
2022-11-12T13:01:20.940Z,97.86
2022-11-12T13:03:59.785Z,97.81
2022-11-12T13:06:34.315Z,97.25
2022-11-12T13:09:13.215Z,97.35
2022-11-12T13:12:01.358Z,97.32
2022-11-12T13:14:31.068Z,97.33
2022-11-12T13:17:00.081Z,97.71
2022-11-12T13:19:38.455Z,98.10
2022-11-12T13:22:17.471Z,97.30
2022-11-12T13:25:08.570Z,96.68
2022-11-12T13:27:44.738Z,96.56
2022-11-12T13:30:14.481Z,96.17
2022-11-12T13:32:42.695Z,96.49
2022-11-12T13:35:18.616Z,96.70
2022-11-12T13:38:08.385Z,96.80
2022-11-12T13:40:58.095Z,96.97
2022-11-12T13:43:34.171Z,98.03
2022-11-12T13:46:11.791Z,98.35
2022-11-12T13:48:44.903Z,98.38
2022-11-12T13:51:52.149Z,99.13
2022-11-12T13:54:35.278Z,98.55
2022-11-12T13:57:20.356Z,99.21
2022-11-12T13:59:47.682Z,98.36
2022-11-12T14:02:25.041Z,97.60
2022-11-12T14:04:52.718Z,97.95
2022-11-12T14:07:46.761Z,100.61
2022-11-12T14:10:46.462Z,96.87
2022-11-12T14:13:32.046Z,97.79
2022-11-12T14:16:25.900Z,97.98
2022-11-12T14:19:17.931Z,98.21
2022-11-12T14:22:02.111Z,99.26
2022-11-12T14:24:28.908Z,98.86
2022-11-12T14:26:55.633Z,98.68
2022-11-12T14:29:22.382Z,99.09
2022-11-12T14:32:01.164Z,99.21
2022-11-12T14:34:29.628Z,99.35
2022-11-12T14:36:57.488Z,99.23
2022-11-12T14:39:27.005Z,99.35
2022-11-12T14:41:55.669Z,99.90
2022-11-12T14:44:40.505Z,100.08
2022-11-12T14:47:09.961Z,99.83
2022-11-12T14:49:44.694Z,99.77
2022-11-12T14:52:28.790Z,99.88
2022-11-12T14:55:07.966Z,100.21
2022-11-12T14:57:34.919Z,100.69
2022-11-12T15:00:20.464Z,101.07
2022-11-12T15:02:57.864Z,100.86
2022-11-12T15:05:30.251Z,101.08
2022-11-12T15:08:11.266Z,101.38
2022-11-12T15:10:45.230Z,102.94
2022-11-12T15:13:21.472Z,103.13
2022-11-12T15:16:07.421Z,102.95
2022-11-12T15:18:35.455Z,102.85
2022-11-12T15:21:23.820Z,102.86
2022-11-12T15:23:53.622Z,103.43
2022-11-12T15:26:31.027Z,103.12
2022-11-12T15:29:10.322Z,103.00
2022-11-12T15:31:51.894Z,103.28
2022-11-12T15:34:38.375Z,103.63
2022-11-12T15:37:18.673Z,103.93
2022-11-12T15:39:48.673Z,103.79
2022-11-12T15:42:39.440Z,103.78
2022-11-12T15:45:20.870Z,103.76
2022-11-12T15:47:48.261Z,104.49
2022-11-12T15:50:23.930Z,104.89
2022-11-12T15:52:50.944Z,104.60
2022-11-12T15:55:18.632Z,104.24
2022-11-12T15:57:49.997Z,103.80
2022-11-12T16:00:19.246Z,104.40
2022-11-12T16:02:48.987Z,104.10
2022-11-12T16:05:17.337Z,104.19
2022-11-12T16:07:44.320Z,104.96
2022-11-12T16:10:15.943Z,104.24
2022-11-12T16:12:43.057Z,104.03
2022-11-12T16:15:17.709Z,104.21
2022-11-12T16:17:45.866Z,104.37
2022-11-12T16:20:23.903Z,104.24
2022-11-12T16:22:51.752Z,104.43
2022-11-12T16:25:20.188Z,104.18
2022-11-12T16:27:51.461Z,104.55
2022-11-12T16:30:24.249Z,104.87
2022-11-12T16:32:50.855Z,104.53
2022-11-12T16:35:18.434Z,104.59
2022-11-12T16:37:46.701Z,104.63
2022-11-12T16:40:22.023Z,104.39
2022-11-12T16:42:48.797Z,104.38
2022-11-12T16:45:18.015Z,104.39
2022-11-12T16:47:50.010Z,104.53
2022-11-12T16:50:19.317Z,104.51
2022-11-12T16:52:46.033Z,104.73
2022-11-12T16:55:12.807Z,104.89
2022-11-12T16:57:40.511Z,105.41
2022-11-12T17:00:10.680Z,105.45
2022-11-12T17:02:43.641Z,105.32
2022-11-12T17:05:18.190Z,105.15
2022-11-12T17:07:44.788Z,105.31
2022-11-12T17:10:11.570Z,105.19
2022-11-12T17:12:38.309Z,105.51
2022-11-12T17:15:06.308Z,105.24
2022-11-12T17:17:33.115Z,105.28
2022-11-12T17:19:59.962Z,105.54
2022-11-12T17:22:26.649Z,106.00
2022-11-12T17:24:53.297Z,106.12
2022-11-12T17:27:19.931Z,105.72
2022-11-12T17:29:46.584Z,106.41
2022-11-12T17:32:13.178Z,106.53
2022-11-12T17:34:39.895Z,106.82
2022-11-12T17:37:06.481Z,106.72
2022-11-12T17:39:33.128Z,106.40
2022-11-12T17:41:59.827Z,106.31
2022-11-12T17:44:26.543Z,106.05
2022-11-12T17:46:53.127Z,106.29
2022-11-12T17:49:19.835Z,106.29
2022-11-12T17:51:46.456Z,106.08
2022-11-12T17:54:13.162Z,106.20
2022-11-12T17:56:39.835Z,106.19
2022-11-12T17:59:06.678Z,106.04
2022-11-12T18:01:34.503Z,106.56
2022-11-12T18:04:01.197Z,106.63
2022-11-12T18:06:34.055Z,106.04
2022-11-12T18:09:04.739Z,106.14
2022-11-12T18:11:41.371Z,106.14
2022-11-12T18:14:09.071Z,106.11
2022-11-12T18:16:36.648Z,106.14
2022-11-12T18:19:03.884Z,106.10
2022-11-12T18:21:30.597Z,105.74
2022-11-12T18:23:57.294Z,105.82
2022-11-12T18:26:26.765Z,105.60
2022-11-12T18:28:54.817Z,105.75
2022-11-12T18:31:23.058Z,104.98
2022-11-12T18:33:50.515Z,105.33
2022-11-12T18:36:24.284Z,105.47
2022-11-12T18:38:52.472Z,106.06
2022-11-12T18:41:25.505Z,105.93
2022-11-12T18:43:56.002Z,106.10
2022-11-12T18:46:23.378Z,105.42
2022-11-12T18:48:53.087Z,105.24
2022-11-12T18:51:20.290Z,105.78
2022-11-12T18:53:47.087Z,105.27
2022-11-12T18:56:19.271Z,104.51
2022-11-12T18:58:46.513Z,104.92
2022-11-12T19:01:16.295Z,104.53
2022-11-12T19:03:43.779Z,104.13
2022-11-12T19:06:12.454Z,104.25
2022-11-12T19:08:39.532Z,103.86
2022-11-12T19:11:09.342Z,105.43
2022-11-12T19:13:36.683Z,104.70
2022-11-12T19:16:12.734Z,105.17
2022-11-12T19:18:41.297Z,105.11
2022-11-12T19:21:13.964Z,104.99
2022-11-12T19:23:41.414Z,104.36
2022-11-12T19:26:10.824Z,104.29
2022-11-12T19:28:37.780Z,104.15
2022-11-12T19:31:12.671Z,105.10
2022-11-12T19:33:39.655Z,104.73
2022-11-12T19:36:08.790Z,104.58
2022-11-12T19:38:35.475Z,104.31
2022-11-12T19:41:05.947Z,104.17
2022-11-12T19:43:33.424Z,104.08
2022-11-12T19:46:00.382Z,103.68
2022-11-12T19:48:27.670Z,103.84
2022-11-12T19:50:54.580Z,103.64
2022-11-12T19:53:21.215Z,103.62
2022-11-12T19:55:48.011Z,104.19
2022-11-12T19:58:14.837Z,104.32
2022-11-12T20:00:41.768Z,104.99
2022-11-12T20:03:08.848Z,105.00
2022-11-12T20:05:35.593Z,105.40
2022-11-12T20:08:02.388Z,105.79
2022-11-12T20:10:29.491Z,106.63
2022-11-12T20:12:56.132Z,106.88
2022-11-12T20:15:22.891Z,105.93
2022-11-12T20:17:49.550Z,105.52
2022-11-12T20:20:16.376Z,105.99
2022-11-12T20:22:43.060Z,105.38
2022-11-12T20:25:09.973Z,105.08
2022-11-12T20:27:37.155Z,104.69
2022-11-12T20:30:05.288Z,104.72
2022-11-12T20:32:31.904Z,105.02
2022-11-12T20:34:58.575Z,103.98
2022-11-12T20:37:25.702Z,104.63
2022-11-12T20:39:52.374Z,105.12
2022-11-12T20:42:18.996Z,104.75
2022-11-12T20:44:45.594Z,104.17
2022-11-12T20:47:12.754Z,104.02
2022-11-12T20:49:39.395Z,104.37
2022-11-12T20:52:06.044Z,103.84
2022-11-12T20:54:32.698Z,103.89
2022-11-12T20:57:01.105Z,104.39
2022-11-12T20:59:27.735Z,104.00
2022-11-12T21:01:57.673Z,104.02
2022-11-12T21:04:24.707Z,104.73
2022-11-12T21:06:51.476Z,104.58
2022-11-12T21:09:18.693Z,104.46
2022-11-12T21:11:45.335Z,104.35
2022-11-12T21:14:12.212Z,104.43
2022-11-12T21:16:38.917Z,104.40
2022-11-12T21:19:05.904Z,104.66
2022-11-12T21:21:32.642Z,104.98
2022-11-12T21:24:04.388Z,105.21
2022-11-12T21:26:31.667Z,105.83
2022-11-12T21:28:58.373Z,105.91
2022-11-12T21:31:27.233Z,105.98
2022-11-12T21:34:04.696Z,106.15
2022-11-12T21:36:34.067Z,106.17
2022-11-12T21:39:01.625Z,105.89
2022-11-12T21:41:31.096Z,106.53
2022-11-12T21:43:58.183Z,106.28
2022-11-12T21:46:27.633Z,106.08
2022-11-12T21:48:55.733Z,105.68
2022-11-12T21:51:25.159Z,105.64
2022-11-12T21:54:00.631Z,105.82
2022-11-12T21:56:27.930Z,105.54
2022-11-12T21:58:59.448Z,105.80
2022-11-12T22:01:28.602Z,106.46
2022-11-12T22:03:56.549Z,106.08
2022-11-12T22:06:25.338Z,105.88
2022-11-12T22:08:53.321Z,105.65
2022-11-12T22:11:21.047Z,105.44
2022-11-12T22:13:48.285Z,105.71
2022-11-12T22:16:20.694Z,105.71
2022-11-12T22:18:49.591Z,106.25
2022-11-12T22:21:18.563Z,105.92
2022-11-12T22:23:45.557Z,105.76
2022-11-12T22:26:14.825Z,105.88
2022-11-12T22:28:41.806Z,105.95
2022-11-12T22:31:14.811Z,106.37
2022-11-12T22:33:42.413Z,106.09
2022-11-12T22:36:17.493Z,105.98
2022-11-12T22:38:45.846Z,106.07
2022-11-12T22:41:15.129Z,106.52
2022-11-12T22:43:42.274Z,106.51
2022-11-12T22:46:14.452Z,106.85
2022-11-12T22:48:41.459Z,106.88
2022-11-12T22:51:13.441Z,106.28
2022-11-12T22:53:40.119Z,106.88
2022-11-12T22:56:12.135Z,106.47
2022-11-12T22:58:41.074Z,106.76
2022-11-12T23:01:16.620Z,106.72
2022-11-12T23:03:43.730Z,106.85
2022-11-12T23:06:10.786Z,106.91
2022-11-12T23:08:37.476Z,106.86
2022-11-12T23:11:06.952Z,107.17
2022-11-12T23:13:34.548Z,107.20
2022-11-12T23:16:02.090Z,107.02
2022-11-12T23:18:29.129Z,107.22
2022-11-12T23:21:07.818Z,107.18
2022-11-12T23:23:36.268Z,107.20
2022-11-12T23:26:09.184Z,107.29
2022-11-12T23:28:35.911Z,107.23
2022-11-12T23:31:09.760Z,107.21
2022-11-12T23:33:36.480Z,107.77
2022-11-12T23:36:08.233Z,107.53
2022-11-12T23:38:35.053Z,107.15
2022-11-12T23:41:02.258Z,107.08
2022-11-12T23:43:29.363Z,107.01
2022-11-12T23:45:55.991Z,107.08
2022-11-12T23:48:22.844Z,107.59
2022-11-12T23:50:50.742Z,107.24
2022-11-12T23:53:18.266Z,107.01
2022-11-12T23:55:44.890Z,107.22
2022-11-12T23:58:11.543Z,106.99
